Time;durP1;ratioP1;P1;durP2;ratioP2;P2;SDS_P1;SDS_P2;PMS_P1;PMS_P2;Temp;Humidity;BMP_temperature;BMP_pressure;BME280_temperature;BME280_humidity;BME280_pressure;Samples;Min_cycle;Max_cycle;Signal;HPM_P1;HPM_P2
2023/11/28 00:01:56;;;;;;;4.75;4.35;;;3.60;99.90;;;;;;5058773;28;20025;-86
2023/11/28 00:04:23;;;;;;;5.13;4.63;;;3.60;99.90;;;;;;5058953;28;20120;-86
2023/11/28 00:06:51;;;;;;;5.43;4.93;;;3.60;99.90;;;;;;5059302;28;20372;-86
2023/11/28 00:09:17;;;;;;;5.25;4.75;;;3.60;99.90;;;;;;5058376;28;20044;-86
2023/11/28 00:11:43;;;;;;;5.55;5.05;;;3.60;99.90;;;;;;5025720;28;20120;-85
2023/11/28 00:14:08;;;;;;;5.82;5.32;;;3.60;99.90;;;;;;5058944;28;20032;-86
2023/11/28 00:16:34;;;;;;;6.35;5.75;;;3.60;99.90;;;;;;5041926;28;20052;-86
2023/11/28 00:18:59;;;;;;;6.72;6.10;;;3.60;99.90;;;;;;5042039;28;20032;-85
2023/11/28 00:21:25;;;;;;;7.00;6.30;;;3.70;99.90;;;;;;5025690;28;20494;-83
2023/11/28 00:23:51;;;;;;;8.05;7.25;;;3.60;99.90;;;;;;5042082;28;20032;-86
2023/11/28 00:26:16;;;;;;;8.80;7.90;;;3.60;99.90;;;;;;5042487;28;20035;-86
2023/11/28 00:28:42;;;;;;;8.35;7.30;;;3.60;99.90;;;;;;5042082;28;20452;-86
2023/11/28 00:31:08;;;;;;;8.55;7.75;;;3.60;99.90;;;;;;5041897;28;20445;-86
2023/11/28 00:33:34;;;;;;;8.23;7.28;;;3.60;99.90;;;;;;5025814;28;20033;-85
2023/11/28 00:35:59;;;;;;;7.47;6.68;;;3.50;99.90;;;;;;5058979;28;20469;-88
2023/11/28 00:38:25;;;;;;;7.35;6.55;;;3.50;99.90;;;;;;5059412;28;20066;-87
2023/11/28 00:40:52;;;;;;;6.63;6.00;;;3.40;99.90;;;;;;5063813;28;20028;-85
2023/11/28 00:43:18;;;;;;;7.13;6.43;;;3.40;99.90;;;;;;5083749;28;20021;-85
2023/11/28 00:45:44;;;;;;;7.63;6.82;;;3.40;99.90;;;;;;5082144;28;20059;-85
2023/11/28 00:48:09;;;;;;;7.28;6.53;;;3.40;99.90;;;;;;5063910;28;20116;-85
2023/11/28 00:50:35;;;;;;;7.03;6.32;;;3.40;99.90;;;;;;5061016;28;20082;-85
2023/11/28 00:53:00;;;;;;;6.30;5.68;;;3.30;99.90;;;;;;5074332;28;20033;-86
2023/11/28 00:55:26;;;;;;;6.15;5.55;;;3.40;99.90;;;;;;5081015;28;20487;-85
2023/11/28 00:57:52;;;;;;;6.68;5.43;;;3.40;99.90;;;;;;5064178;28;20032;-84
2023/11/28 01:00:18;;;;;;;5.65;5.13;;;3.40;99.90;;;;;;5077378;28;20039;-85
2023/11/28 01:02:44;;;;;;;5.55;5.00;;;3.40;99.90;;;;;;5029862;28;20031;-86
2023/11/28 01:05:10;;;;;;;6.10;5.32;;;3.40;99.90;;;;;;5059337;28;20029;-85
2023/11/28 01:07:37;;;;;;;5.97;5.40;;;3.40;99.90;;;;;;5041866;28;20056;-85
2023/11/28 01:10:03;;;;;;;6.28;5.65;;;3.40;99.90;;;;;;5075838;28;20135;-86
2023/11/28 01:12:28;;;;;;;6.50;5.80;;;3.40;99.90;;;;;;5040997;28;20028;-86
2023/11/28 01:14:54;;;;;;;6.15;5.55;;;3.40;99.90;;;;;;5057944;28;20033;-85
2023/11/28 01:17:20;;;;;;;5.95;5.22;;;3.40;99.90;;;;;;5041411;28;20483;-85
2023/11/28 01:19:45;;;;;;;6.45;5.85;;;3.40;99.90;;;;;;5057965;28;20127;-85
2023/11/28 01:22:11;;;;;;;6.70;6.00;;;3.40;99.90;;;;;;5041104;28;20044;-84
2023/11/28 01:24:39;;;;;;;6.20;5.60;;;3.40;99.90;;;;;;5057781;28;20132;-85
2023/11/28 01:27:05;;;;;;;6.47;5.75;;;3.50;99.90;;;;;;5041086;28;20043;-85
2023/11/28 01:29:31;;;;;;;5.60;5.00;;;3.50;99.90;;;;;;5057654;28;20273;-85
2023/11/28 01:31:56;;;;;;;7.03;6.03;;;3.40;99.90;;;;;;5057116;28;20362;-85
2023/11/28 01:34:22;;;;;;;7.20;5.97;;;3.40;99.90;;;;;;5040817;28;20060;-85
2023/11/28 01:36:49;;;;;;;7.35;5.30;;;3.30;99.90;;;;;;5024435;28;20052;-85
2023/11/28 01:39:15;;;;;;;7.28;5.72;;;3.30;99.90;;;;;;5057439;28;20029;-86
2023/11/28 01:41:42;;;;;;;6.68;5.95;;;3.30;99.90;;;;;;5075059;28;20028;-86
2023/11/28 01:44:07;;;;;;;6.68;5.65;;;3.30;99.90;;;;;;5040690;28;20020;-85
2023/11/28 01:46:38;;;;;;;6.50;5.40;;;3.20;99.90;;;;;;5075339;28;20086;-86
2023/11/28 01:49:04;;;;;;;5.80;5.13;;;3.20;99.90;;;;;;5041428;28;20028;-86
2023/11/28 01:51:30;;;;;;;6.40;5.43;;;3.20;99.90;;;;;;5075134;28;20124;-86
2023/11/28 01:54:00;;;;;;;6.60;5.75;;;3.20;99.90;;;;;;5057237;28;20036;-85
2023/11/28 01:56:27;;;;;;;6.60;5.70;;;3.20;99.90;;;;;;5076893;28;20103;-85
2023/11/28 01:58:54;;;;;;;5.88;5.25;;;3.20;99.90;;;;;;5081174;28;20029;-84
2023/11/28 02:01:21;;;;;;;6.65;5.95;;;3.10;99.90;;;;;;5081616;28;20043;-83
2023/11/28 02:03:48;;;;;;;7.70;6.20;;;3.10;99.90;;;;;;5077520;28;20025;-85
2023/11/28 02:06:14;;;;;;;6.13;5.53;;;3.10;99.90;;;;;;5078448;28;20072;-85
2023/11/28 02:08:40;;;;;;;5.75;4.90;;;3.10;99.90;;;;;;5039508;28;20032;-85
2023/11/28 02:11:06;;;;;;;7.53;6.20;;;3.20;99.90;;;;;;5074750;28;20479;-85
2023/11/28 02:13:33;;;;;;;7.40;5.38;;;3.10;99.90;;;;;;5040163;28;20025;-85
2023/11/28 02:16:07;;;;;;;6.80;5.57;;;3.10;99.90;;;;;;5056445;28;20379;-85
2023/11/28 02:18:33;;;;;;;6.28;5.68;;;3.10;99.90;;;;;;5074292;28;20032;-85
2023/11/28 02:20:59;;;;;;;7.45;6.15;;;3.10;99.90;;;;;;5039956;28;20044;-84
2023/11/28 02:23:24;;;;;;;6.75;5.90;;;3.00;99.90;;;;;;5056654;28;20029;-86
2023/11/28 02:25:50;;;;;;;7.13;6.43;;;3.00;99.90;;;;;;5040027;28;20029;-87
2023/11/28 02:28:21;;;;;;;7.30;6.53;;;3.00;99.90;;;;;;5039769;28;20031;-85
2023/11/28 02:30:48;;;;;;;9.20;6.20;;;3.00;99.90;;;;;;5074211;28;20527;-85
2023/11/28 02:33:14;;;;;;;8.27;6.60;;;3.00;99.90;;;;;;5055151;28;20119;-85
2023/11/28 02:35:40;;;;;;;7.10;6.00;;;3.00;99.90;;;;;;5073876;28;20033;-85
2023/11/28 02:38:06;;;;;;;8.23;6.50;;;3.00;99.90;;;;;;5056005;28;20078;-86
2023/11/28 02:40:31;;;;;;;8.60;6.80;;;3.00;99.90;;;;;;5039245;28;20046;-86
2023/11/28 02:42:57;;;;;;;8.88;7.28;;;2.90;99.90;;;;;;5056271;28;20036;-85
2023/11/28 02:45:23;;;;;;;8.40;7.03;;;3.00;99.90;;;;;;5056229;28;20464;-86
2023/11/28 02:47:48;;;;;;;7.38;6.68;;;2.90;99.90;;;;;;5023148;28;20020;-86
2023/11/28 02:50:14;;;;;;;7.63;6.63;;;2.90;99.90;;;;;;5039249;28;20033;-85
2023/11/28 02:52:40;;;;;;;7.80;6.88;;;3.00;99.90;;;;;;5074207;28;20033;-86
2023/11/28 02:55:06;;;;;;;8.85;7.30;;;3.00;99.90;;;;;;5056205;28;20360;-86
2023/11/28 02:57:33;;;;;;;8.18;7.30;;;3.00;99.90;;;;;;5056137;28;20032;-86
2023/11/28 02:59:58;;;;;;;8.27;7.47;;;2.90;99.90;;;;;;5056157;28;20051;-86
2023/11/28 03:02:24;;;;;;;8.02;7.22;;;2.90;99.90;;;;;;5039530;28;20024;-86
2023/11/28 03:04:49;;;;;;;9.73;8.00;;;3.00;99.90;;;;;;5056681;28;20033;-87
2023/11/28 03:07:15;;;;;;;8.85;7.95;;;3.00;99.90;;;;;;5039487;28;20033;-86
2023/11/28 03:09:41;;;;;;;8.90;8.00;;;3.00;99.90;;;;;;5074128;28;20059;-86
2023/11/28 03:12:08;;;;;;;9.82;7.22;;;3.00;99.90;;;;;;5039847;28;20040;-85
2023/11/28 03:14:34;;;;;;;8.70;7.65;;;3.00;99.90;;;;;;5078182;28;20051;-86
2023/11/28 03:17:00;;;;;;;9.40;7.40;;;3.00;99.90;;;;;;5080313;28;20080;-86
2023/11/28 03:19:26;;;;;;;9.55;7.88;;;3.10;99.90;;;;;;5082026;28;20068;-85
2023/11/28 03:21:52;;;;;;;10.30;7.82;;;3.10;99.90;;;;;;5085367;28;20043;-86
2023/11/28 03:24:18;;;;;;;8.00;6.93;;;3.10;99.90;;;;;;5066077;28;20021;-85
2023/11/28 03:26:44;;;;;;;7.63;6.82;;;3.10;99.90;;;;;;5062454;28;20031;-87
2023/11/28 03:29:10;;;;;;;7.88;6.03;;;3.00;99.90;;;;;;5043082;28;20479;-86
2023/11/28 03:31:36;;;;;;;10.00;5.97;;;3.00;99.90;;;;;;5077688;28;20460;-86
2023/11/28 03:34:03;;;;;;;9.23;6.85;;;3.00;99.90;;;;;;5059930;28;20067;-87
2023/11/28 03:36:29;;;;;;;7.50;6.80;;;3.00;99.90;;;;;;5077601;28;20028;-86
2023/11/28 03:38:54;;;;;;;7.65;6.18;;;3.00;99.90;;;;;;5059950;28;20032;-87
2023/11/28 03:41:20;;;;;;;8.57;5.90;;;2.90;99.90;;;;;;5042641;28;20079;-86
2023/11/28 03:43:46;;;;;;;7.47;6.05;;;2.90;99.90;;;;;;5077624;28;20021;-87
2023/11/28 03:46:12;;;;;;;7.03;5.45;;;2.80;99.90;;;;;;5059605;28;20028;-86
2023/11/28 03:48:38;;;;;;;7.88;5.18;;;2.80;99.90;;;;;;5059879;28;20511;-86
2023/11/28 03:51:05;;;;;;;6.93;5.07;;;2.70;99.90;;;;;;5059760;28;20035;-87
2023/11/28 03:53:30;;;;;;;6.65;5.05;;;2.60;99.90;;;;;;5077365;28;20032;-86
2023/11/28 03:55:56;;;;;;;6.60;4.47;;;2.60;99.90;;;;;;5059550;28;20032;-87
2023/11/28 03:58:23;;;;;;;5.47;4.28;;;2.60;99.90;;;;;;5026045;28;20098;-86
2023/11/28 04:00:50;;;;;;;6.10;4.22;;;2.50;99.90;;;;;;5059364;28;20033;-87
2023/11/28 04:03:16;;;;;;;4.90;3.80;;;2.50;99.90;;;;;;5026092;28;20028;-86
2023/11/28 04:05:43;;;;;;;5.97;4.25;;;2.40;99.90;;;;;;5042950;28;20028;-87
2023/11/28 04:08:09;;;;;;;6.15;3.42;;;2.30;99.90;;;;;;5076688;28;20028;-86
2023/11/28 04:10:34;;;;;;;4.68;3.17;;;2.30;99.90;;;;;;5055850;28;20045;-87
2023/11/28 04:13:00;;;;;;;4.03;3.33;;;2.20;99.90;;;;;;5039360;28;20028;-87
2023/11/28 04:15:26;;;;;;;5.05;3.30;;;2.20;99.90;;;;;;5055764;28;20025;-86
2023/11/28 04:17:51;;;;;;;4.13;2.92;;;2.20;99.90;;;;;;5056722;28;20107;-86
2023/11/28 04:20:17;;;;;;;3.67;2.50;;;2.10;99.90;;;;;;5038951;28;20118;-87
2023/11/28 04:22:43;;;;;;;3.63;2.30;;;2.10;99.90;;;;;;5055765;28;20033;-86
2023/11/28 04:25:09;;;;;;;4.50;3.05;;;2.10;99.90;;;;;;5057091;28;20059;-87
2023/11/28 04:27:35;;;;;;;3.85;2.50;;;2.10;99.90;;;;;;5057035;28;20036;-87
2023/11/28 04:30:00;;;;;;;3.95;2.60;;;2.00;99.90;;;;;;5055620;28;20037;-86
2023/11/28 04:32:26;;;;;;;3.13;2.35;;;2.10;99.90;;;;;;5068226;28;20029;-82
2023/11/28 04:34:51;;;;;;;4.90;2.35;;;2.00;99.90;;;;;;5080216;28;20037;-86
2023/11/28 04:37:17;;;;;;;3.15;2.28;;;2.00;99.90;;;;;;5063449;28;20017;-84
2023/11/28 04:39:44;;;;;;;3.35;2.10;;;1.90;99.90;;;;;;5075648;28;20074;-84
2023/11/28 04:42:10;;;;;;;4.50;2.30;;;1.80;99.90;;;;;;5057417;28;20065;-86
2023/11/28 04:44:36;;;;;;;2.25;1.90;;;1.80;99.90;;;;;;5055196;28;20027;-86
2023/11/28 04:47:02;;;;;;;2.63;1.92;;;1.80;99.90;;;;;;5038673;28;20036;-86
2023/11/28 04:49:28;;;;;;;3.58;2.17;;;1.80;99.90;;;;;;5021961;28;20053;-87
2023/11/28 04:51:53;;;;;;;2.95;1.92;;;1.80;99.90;;;;;;5038711;28;20466;-86
2023/11/28 04:54:20;;;;;;;4.78;2.35;;;1.80;99.90;;;;;;5055132;28;20465;-86
2023/11/28 04:56:46;;;;;;;4.07;1.90;;;1.70;99.90;;;;;;5022537;28;20100;-86
2023/11/28 04:59:11;;;;;;;3.30;2.50;;;1.70;99.90;;;;;;5055076;28;20035;-87
2023/11/28 05:01:47;;;;;;;2.20;2.00;;;1.70;99.90;;;;;;5055191;28;20087;-87
2023/11/28 05:04:13;;;;;;;3.90;2.10;;;1.70;99.90;;;;;;5056148;28;20025;-87
2023/11/28 05:06:39;;;;;;;3.25;2.28;;;1.60;99.90;;;;;;5055523;28;20021;-86
2023/11/28 05:09:06;;;;;;;2.67;2.20;;;1.70;99.90;;;;;;5058784;28;20502;-87
2023/11/28 05:11:32;;;;;;;4.50;2.28;;;1.60;99.90;;;;;;5041620;28;20061;-87
2023/11/28 05:13:58;;;;;;;2.83;1.90;;;1.60;99.90;;;;;;5041762;28;20029;-86
2023/11/28 05:16:23;;;;;;;2.38;2.15;;;1.60;99.90;;;;;;5041453;28;20433;-86
2023/11/28 05:18:49;;;;;;;2.47;2.20;;;1.60;99.90;;;;;;5075583;28;20064;-87
2023/11/28 05:21:15;;;;;;;3.70;2.90;;;1.70;99.90;;;;;;5076104;28;20073;-86
2023/11/28 05:23:41;;;;;;;2.97;2.38;;;1.60;99.90;;;;;;5041212;28;20033;-92
2023/11/28 05:26:07;;;;;;;4.38;2.88;;;1.70;99.90;;;;;;5058369;28;20539;-91
2023/11/28 05:28:33;;;;;;;4.38;3.22;;;1.60;99.90;;;;;;5057197;28;20035;-88
2023/11/28 05:30:59;;;;;;;6.57;3.00;;;1.60;99.90;;;;;;5058006;28;20460;-87
2023/11/28 05:33:25;;;;;;;3.83;3.17;;;1.60;99.90;;;;;;5041180;28;20028;-87
2023/11/28 05:35:50;;;;;;;5.03;3.13;;;1.60;99.90;;;;;;5057730;28;20025;-89
2023/11/28 05:38:16;;;;;;;5.63;3.22;;;1.60;99.90;;;;;;5058141;28;20025;-88
2023/11/28 05:40:42;;;;;;;4.53;3.03;;;1.60;99.90;;;;;;5075673;28;20123;-88
2023/11/28 05:43:08;;;;;;;4.65;3.45;;;1.60;99.90;;;;;;5056752;28;20060;-85
2023/11/28 05:45:34;;;;;;;3.70;2.90;;;1.70;99.90;;;;;;5076387;28;20041;-89
2023/11/28 05:47:59;;;;;;;5.78;3.35;;;1.60;99.90;;;;;;5058767;28;20032;-89
2023/11/28 05:50:25;;;;;;;4.55;2.97;;;1.70;99.90;;;;;;5026694;28;20456;-90
2023/11/28 05:52:52;;;;;;;5.47;3.15;;;1.70;99.90;;;;;;5097103;28;20012;-88
2023/11/28 05:55:21;;;;;;;4.38;2.72;;;1.70;99.90;;;;;;5095808;28;20016;-89
2023/11/28 05:57:48;;;;;;;3.22;2.63;;;1.70;99.90;;;;;;5026413;28;20021;-88
2023/11/28 06:00:14;;;;;;;3.95;3.10;;;1.70;99.90;;;;;;5075712;28;20028;-89
2023/11/28 06:02:40;;;;;;;3.72;2.50;;;1.80;99.90;;;;;;5057990;28;20092;-89
2023/11/28 06:05:07;;;;;;;4.63;3.38;;;1.80;99.90;;;;;;5058245;28;20028;-89
2023/11/28 06:07:33;;;;;;;3.38;3.08;;;1.70;99.90;;;;;;5040963;28;20033;-89
2023/11/28 06:09:58;;;;;;;4.85;3.40;;;1.80;99.90;;;;;;5057491;28;20044;-90
2023/11/28 06:12:24;;;;;;;4.25;3.25;;;1.80;99.90;;;;;;5056977;28;20028;-88
2023/11/28 06:14:54;;;;;;;5.07;3.03;;;1.80;99.90;;;;;;5056914;28;20464;-88
2023/11/28 06:17:19;;;;;;;2.55;2.25;;;1.80;99.90;;;;;;5057357;28;20029;-87
2023/11/28 06:19:45;;;;;;;4.75;2.97;;;1.80;99.90;;;;;;5023742;28;20065;-88
2023/11/28 06:22:11;;;;;;;4.28;3.05;;;1.80;99.90;;;;;;5040705;28;20074;-87
2023/11/28 06:24:39;;;;;;;4.93;2.60;;;1.90;99.90;;;;;;5040401;28;20090;-87
2023/11/28 06:27:05;;;;;;;5.80;2.63;;;1.90;99.90;;;;;;5040885;28;20029;-88
2023/11/28 06:29:32;;;;;;;3.73;2.67;;;1.90;99.90;;;;;;5040360;28;20041;-84
2023/11/28 06:31:59;;;;;;;4.25;2.80;;;2.00;99.90;;;;;;5057205;28;20221;-89
2023/11/28 06:34:25;;;;;;;5.47;3.38;;;2.00;99.90;;;;;;5057175;28;20556;-88
2023/11/28 06:36:51;;;;;;;4.53;3.13;;;2.10;99.90;;;;;;5040895;28;20082;-89
2023/11/28 06:39:19;;;;;;;3.85;2.40;;;2.10;99.90;;;;;;5040883;28;20037;-89
2023/11/28 06:41:45;;;;;;;3.13;2.30;;;2.10;99.90;;;;;;5041463;28;20060;-88
2023/11/28 06:44:14;;;;;;;4.97;2.65;;;2.10;99.90;;;;;;5024266;28;20495;-88
2023/11/28 06:46:40;;;;;;;3.20;2.60;;;2.20;99.90;;;;;;5041415;28;20040;-88
2023/11/28 06:49:06;;;;;;;4.55;2.88;;;2.20;99.90;;;;;;5074976;28;20021;-90
2023/11/28 06:51:32;;;;;;;4.15;2.63;;;2.20;99.90;;;;;;5040161;28;20036;-88
2023/11/28 06:53:59;;;;;;;3.40;2.30;;;2.20;99.90;;;;;;5056795;28;20090;-89
2023/11/28 06:56:25;;;;;;;3.03;2.28;;;2.30;99.90;;;;;;5057256;28;20449;-89
2023/11/28 06:58:51;;;;;;;4.75;2.47;;;2.30;99.90;;;;;;5040786;28;20098;-90
2023/11/28 07:01:18;;;;;;;3.20;2.45;;;2.30;99.90;;;;;;5058684;28;20056;-89
2023/11/28 07:03:44;;;;;;;4.63;2.58;;;2.30;99.90;;;;;;5050720;28;20101;-87
2023/11/28 07:06:10;;;;;;;2.95;2.17;;;2.30;99.90;;;;;;5080970;28;20025;-84
2023/11/28 07:08:36;;;;;;;3.53;2.40;;;2.30;99.90;;;;;;5098287;28;20017;-84
2023/11/28 07:11:02;;;;;;;2.65;2.15;;;2.40;99.90;;;;;;5063772;28;20064;-88
2023/11/28 07:13:28;;;;;;;3.38;2.40;;;2.40;99.90;;;;;;5047292;28;20029;-84
2023/11/28 07:15:54;;;;;;;3.78;2.60;;;2.40;99.90;;;;;;5080581;28;20029;-88
2023/11/28 07:18:22;;;;;;;3.85;2.35;;;2.50;99.90;;;;;;5097590;28;20009;-89
2023/11/28 07:20:48;;;;;;;3.67;2.70;;;2.50;99.90;;;;;;5054855;28;20074;-90
2023/11/28 07:23:14;;;;;;;2.88;2.33;;;2.40;99.90;;;;;;5075595;28;20024;-88
2023/11/28 07:25:40;;;;;;;3.30;2.33;;;2.50;99.90;;;;;;5040704;28;20391;-90
2023/11/28 07:28:05;;;;;;;3.75;2.40;;;2.40;99.90;;;;;;5040441;28;20102;-89
2023/11/28 07:30:31;;;;;;;3.15;2.25;;;2.50;99.90;;;;;;5040147;28;20207;-88
2023/11/28 07:32:57;;;;;;;5.13;2.35;;;2.40;99.90;;;;;;5040123;28;20073;-89
2023/11/28 07:35:22;;;;;;;3.30;2.70;;;2.50;99.90;;;;;;5056992;28;20024;-89
2023/11/28 07:37:48;;;;;;;4.60;2.30;;;2.40;99.90;;;;;;5024023;28;20032;-89
2023/11/28 07:40:13;;;;;;;3.85;2.15;;;2.40;99.90;;;;;;5074329;28;20113;-90
2023/11/28 07:42:39;;;;;;;4.80;2.40;;;2.50;99.90;;;;;;5056674;28;20037;-90
2023/11/28 07:45:05;;;;;;;2.42;2.22;;;2.60;99.90;;;;;;5040284;28;20487;-89
2023/11/28 07:47:31;;;;;;;2.92;2.55;;;2.60;99.90;;;;;;5040191;28;20040;-88
2023/11/28 07:49:57;;;;;;;3.00;2.28;;;2.60;99.90;;;;;;5023471;28;20033;-89
2023/11/28 07:52:22;;;;;;;2.70;1.90;;;2.60;99.90;;;;;;5074334;28;20108;-89
2023/11/28 07:54:48;;;;;;;3.67;2.30;;;2.60;99.90;;;;;;5039778;28;20328;-90
2023/11/28 07:57:13;;;;;;;4.30;2.20;;;2.70;99.90;;;;;;5039752;28;20086;-89
2023/11/28 07:59:39;;;;;;;3.38;2.10;;;2.70;99.90;;;;;;5056540;28;20040;-89
2023/11/28 08:02:05;;;;;;;2.13;1.85;;;2.60;99.90;;;;;;5039993;28;20456;-89
2023/11/28 08:04:31;;;;;;;2.05;1.70;;;2.70;99.90;;;;;;5023405;28;20029;-88
2023/11/28 08:06:57;;;;;;;2.95;1.88;;;2.70;99.90;;;;;;5058251;28;20431;-89
2023/11/28 08:09:23;;;;;;;3.33;1.80;;;2.70;99.90;;;;;;5060142;28;20052;-89
2023/11/28 08:11:49;;;;;;;3.53;2.17;;;2.80;99.90;;;;;;5059927;28;20094;-89
2023/11/28 08:14:16;;;;;;;2.90;2.20;;;2.80;99.90;;;;;;5060473;28;20043;-88
2023/11/28 08:16:41;;;;;;;5.00;2.83;;;2.80;99.90;;;;;;5043654;28;20491;-89
2023/11/28 08:19:07;;;;;;;3.42;2.30;;;2.80;99.90;;;;;;5054350;28;20051;-88
2023/11/28 08:21:34;;;;;;;4.18;2.45;;;2.80;99.90;;;;;;5065061;28;20042;-89
2023/11/28 08:24:00;;;;;;;2.20;1.90;;;2.80;99.90;;;;;;5074625;28;20028;-89
2023/11/28 08:26:26;;;;;;;2.88;1.90;;;2.90;99.90;;;;;;5079493;28;20036;-90
2023/11/28 08:28:55;;;;;;;3.33;2.25;;;2.90;99.90;;;;;;5066204;28;20025;-89
2023/11/28 08:31:20;;;;;;;3.13;2.45;;;3.00;99.90;;;;;;5028443;28;20119;-89
2023/11/28 08:33:46;;;;;;;2.63;2.10;;;3.00;99.90;;;;;;5059459;28;20068;-89
2023/11/28 08:36:11;;;;;;;2.85;1.80;;;3.00;99.90;;;;;;5043366;28;20468;-88
2023/11/28 08:38:38;;;;;;;2.83;1.88;;;3.10;99.90;;;;;;5076801;28;20082;-88
2023/11/28 08:41:03;;;;;;;2.67;2.22;;;3.10;99.90;;;;;;5059318;28;20028;-88
2023/11/28 08:43:29;;;;;;;2.58;1.65;;;3.10;99.90;;;;;;5076707;28;20534;-88
2023/11/28 08:45:55;;;;;;;3.85;2.15;;;3.10;99.90;;;;;;5059069;28;20020;-89
2023/11/28 08:48:20;;;;;;;2.28;1.92;;;3.10;99.90;;;;;;5059362;28;20029;-89
2023/11/28 08:50:46;;;;;;;3.20;2.05;;;3.10;99.90;;;;;;5042351;28;20032;-89
2023/11/28 08:53:12;;;;;;;2.00;1.80;;;3.10;99.90;;;;;;5059066;28;20032;-88
2023/11/28 08:55:37;;;;;;;2.92;1.70;;;3.20;99.90;;;;;;5059236;28;20404;-89
2023/11/28 08:58:03;;;;;;;4.15;1.63;;;3.30;99.90;;;;;;5077001;28;20024;-89
2023/11/28 09:00:29;;;;;;;2.80;1.98;;;3.20;99.90;;;;;;5059146;28;20032;-89
2023/11/28 09:02:55;;;;;;;2.45;2.00;;;3.30;99.90;;;;;;5058934;28;20036;-88
2023/11/28 09:05:21;;;;;;;2.10;1.65;;;3.30;99.90;;;;;;5059073;28;20353;-89
2023/11/28 09:07:47;;;;;;;3.15;2.10;;;3.30;99.90;;;;;;5042418;28;20115;-90
2023/11/28 09:10:13;;;;;;;2.90;2.10;;;3.30;99.90;;;;;;5076545;28;20048;-89
2023/11/28 09:12:39;;;;;;;2.55;1.80;;;3.30;99.90;;;;;;5042180;28;20070;-89
2023/11/28 09:15:05;;;;;;;2.70;1.85;;;3.30;99.90;;;;;;5058634;28;20028;-89
2023/11/28 09:17:31;;;;;;;3.45;2.05;;;3.40;99.90;;;;;;5058403;28;20037;-88
2023/11/28 09:19:56;;;;;;;2.80;2.13;;;3.40;99.90;;;;;;5042109;28;20029;-90
2023/11/28 09:22:22;;;;;;;2.95;1.98;;;3.40;99.90;;;;;;5024907;28;20037;-89
2023/11/28 09:24:48;;;;;;;2.13;1.92;;;3.50;99.90;;;;;;5041336;28;20029;-89
2023/11/28 09:27:14;;;;;;;2.83;1.70;;;3.60;99.90;;;;;;5058416;28;20490;-89
2023/11/28 09:29:39;;;;;;;4.82;2.15;;;3.60;99.90;;;;;;5041482;28;20105;-89
2023/11/28 09:32:05;;;;;;;2.33;1.77;;;3.60;99.90;;;;;;5042047;28;20059;-88
2023/11/28 09:34:32;;;;;;;2.45;1.88;;;3.70;99.90;;;;;;5041947;28;20069;-88
2023/11/28 09:36:57;;;;;;;1.75;1.63;;;3.80;99.90;;;;;;5041290;28;20029;-88
2023/11/28 09:39:23;;;;;;;2.38;2.03;;;3.80;99.90;;;;;;5025865;28;20024;-88
2023/11/28 09:41:50;;;;;;;3.15;2.03;;;3.80;99.90;;;;;;5040398;28;20123;-86
2023/11/28 09:44:17;;;;;;;4.38;2.17;;;3.90;99.90;;;;;;5080640;28;20052;-90
2023/11/28 09:46:48;;;;;;;3.25;2.00;;;3.90;99.90;;;;;;5048718;28;20020;-90
2023/11/28 09:49:18;;;;;;;2.70;1.70;;;3.90;99.90;;;;;;5094762;28;20106;-88
2023/11/28 09:51:46;;;;;;;2.45;2.13;;;4.00;99.90;;;;;;5062538;28;20036;-88
2023/11/28 09:54:15;;;;;;;4.35;2.10;;;4.10;99.90;;;;;;5079587;28;20036;-90
2023/11/28 09:56:43;;;;;;;2.72;2.10;;;4.10;99.90;;;;;;5060717;28;20380;-88
2023/11/28 09:59:12;;;;;;;3.42;2.10;;;4.10;99.90;;;;;;5041782;28;20028;-90
2023/11/28 10:01:40;;;;;;;2.58;2.15;;;4.10;99.90;;;;;;5057929;28;20423;-90
2023/11/28 10:04:06;;;;;;;2.53;1.95;;;4.20;99.90;;;;;;5075599;28;20091;-89
2023/11/28 10:06:32;;;;;;;2.47;2.00;;;4.20;99.90;;;;;;5075416;28;20033;-90
2023/11/28 10:09:00;;;;;;;2.45;1.95;;;4.20;99.90;;;;;;5057716;28;20126;-90
2023/11/28 10:11:31;;;;;;;2.95;2.22;;;4.20;99.90;;;;;;5075480;28;20053;-89
2023/11/28 10:13:56;;;;;;;2.67;2.07;;;4.30;99.90;;;;;;5075635;28;20066;-88
2023/11/28 10:16:46;;;;;;;2.78;2.15;;;4.30;99.90;;;;;;5041070;28;20275;-89
2023/11/28 10:19:12;;;;;;;3.08;2.20;;;4.40;99.90;;;;;;5057376;28;20025;-89
2023/11/28 10:21:39;;;;;;;3.25;2.22;;;4.40;99.90;;;;;;5057482;28;20380;-88
2023/11/28 10:24:08;;;;;;;2.55;1.90;;;4.40;99.90;;;;;;5057715;28;20024;-89
2023/11/28 10:26:34;;;;;;;3.08;2.22;;;4.40;99.90;;;;;;5041454;28;20032;-90
2023/11/28 10:29:02;;;;;;;4.32;2.50;;;4.30;99.90;;;;;;5040344;28;20021;-88
2023/11/28 10:31:28;;;;;;;2.78;2.13;;;4.40;99.90;;;;;;5057428;28;20036;-89
2023/11/28 10:33:57;;;;;;;3.25;2.47;;;4.40;99.90;;;;;;5057515;28;20032;-89
2023/11/28 10:36:25;;;;;;;3.03;2.10;;;4.40;99.90;;;;;;5057571;28;20025;-89
2023/11/28 10:38:51;;;;;;;3.28;1.98;;;4.50;99.90;;;;;;5057367;28;20033;-85
2023/11/28 10:41:17;;;;;;;2.53;2.33;;;4.50;99.90;;;;;;5057403;28;20381;-89
2023/11/28 10:43:45;;;;;;;3.42;2.10;;;4.50;99.90;;;;;;5040506;28;20029;-89
2023/11/28 10:46:13;;;;;;;3.47;2.10;;;4.50;99.90;;;;;;5074651;28;20032;-89
2023/11/28 10:48:39;;;;;;;3.38;2.15;;;4.60;99.90;;;;;;5040836;28;20020;-88
2023/11/28 10:51:06;;;;;;;2.22;2.03;;;4.60;99.90;;;;;;5056844;28;20059;-88
2023/11/28 10:53:35;;;;;;;3.78;2.03;;;4.60;99.90;;;;;;5057372;28;20032;-89
2023/11/28 10:56:02;;;;;;;2.95;2.00;;;4.70;99.90;;;;;;5057221;28;20036;-88
2023/11/28 10:58:28;;;;;;;3.25;2.13;;;4.70;99.90;;;;;;5057167;28;20033;-89
2023/11/28 11:00:56;;;;;;;4.38;2.65;;;4.70;99.90;;;;;;5074774;28;20032;-86
2023/11/28 11:03:23;;;;;;;2.03;1.83;;;4.70;99.90;;;;;;5062155;28;20028;-89
2023/11/28 11:05:49;;;;;;;2.90;2.28;;;4.80;99.90;;;;;;5081243;28;20016;-89
2023/11/28 11:08:15;;;;;;;2.80;2.38;;;4.80;99.90;;;;;;5064392;28;20013;-87
2023/11/28 11:10:41;;;;;;;2.92;2.45;;;4.80;99.90;;;;;;5086748;28;20098;-89
2023/11/28 11:13:38;;;;;;;2.85;2.03;;;4.80;99.90;;;;;;5040299;28;20115;-89
2023/11/28 11:16:31;;;;;;;2.10;1.90;;;4.80;99.90;;;;;;5074359;28;20029;-89
2023/11/28 11:18:57;;;;;;;5.05;2.10;;;4.80;99.90;;;;;;5055947;28;20027;-90
2023/11/28 11:21:33;;;;;;;1.98;1.75;;;4.90;99.90;;;;;;5056769;28;20028;-90
2023/11/28 11:24:00;;;;;;;2.33;2.03;;;4.90;99.90;;;;;;5074491;28;20029;-88
2023/11/28 11:26:39;;;;;;;2.15;1.95;;;5.00;99.90;;;;;;5056975;28;20063;-89
2023/11/28 11:29:26;;;;;;;2.90;2.20;;;5.10;99.90;;;;;;5056466;28;20063;-89
2023/11/28 11:31:53;;;;;;;3.88;2.10;;;5.10;99.90;;;;;;5056418;28;20392;-88
2023/11/28 11:34:44;;;;;;;4.63;2.30;;;5.20;99.90;;;;;;5074068;28;20465;-88
2023/11/28 11:37:15;;;;;;;3.67;2.20;;;5.30;99.90;;;;;;5073930;28;20147;-90
2023/11/28 11:39:41;;;;;;;2.97;2.40;;;5.30;99.90;;;;;;5074107;28;20017;-89
2023/11/28 11:42:26;;;;;;;2.92;1.90;;;5.40;99.90;;;;;;5059881;28;20480;-88
2023/11/28 11:45:05;;;;;;;4.45;1.92;;;5.40;99.90;;;;;;5060290;28;20156;-88
2023/11/28 11:47:32;;;;;;;3.28;2.08;;;5.40;99.90;;;;;;5060124;28;20038;-88
2023/11/28 11:49:59;;;;;;;3.65;2.13;;;5.40;99.90;;;;;;5060011;28;20020;-86
2023/11/28 11:52:27;;;;;;;4.60;2.20;;;5.40;99.90;;;;;;5060437;28;20060;-89
2023/11/28 11:55:03;;;;;;;2.40;1.60;;;5.40;99.90;;;;;;5077826;28;20039;-89
2023/11/28 11:57:29;;;;;;;3.47;2.03;;;5.40;99.90;;;;;;5060298;28;20020;-88
2023/11/28 11:59:54;;;;;;;2.50;1.75;;;5.40;99.90;;;;;;5060131;28;20028;-89
2023/11/28 12:02:20;;;;;;;3.13;1.83;;;5.40;99.90;;;;;;5043441;28;20105;-89
2023/11/28 12:04:47;;;;;;;3.90;2.10;;;5.40;99.90;;;;;;5077752;28;20024;-89
2023/11/28 12:07:15;;;;;;;1.77;1.60;;;5.40;99.90;;;;;;5077429;28;20077;-89
2023/11/28 12:09:42;;;;;;;2.40;1.70;;;5.50;99.90;;;;;;5059970;28;20426;-88
2023/11/28 12:12:11;;;;;;;2.10;1.70;;;5.50;99.90;;;;;;5077583;28;20491;-89
2023/11/28 12:14:37;;;;;;;2.65;1.88;;;5.50;99.90;;;;;;5060494;28;20058;-88
2023/11/28 12:17:04;;;;;;;2.63;1.70;;;5.50;99.90;;;;;;5060176;28;20154;-89
2023/11/28 12:19:30;;;;;;;2.47;1.75;;;5.60;99.90;;;;;;5060154;28;20032;-89
2023/11/28 12:22:09;;;;;;;3.50;1.92;;;5.60;99.90;;;;;;5043799;28;20024;-87
2023/11/28 12:24:35;;;;;;;3.10;1.67;;;5.50;99.90;;;;;;5078190;28;20077;-89
2023/11/28 12:27:04;;;;;;;3.17;1.70;;;5.50;99.90;;;;;;5101152;28;20032;-89
2023/11/28 12:29:31;;;;;;;2.45;1.63;;;5.50;99.90;;;;;;5101006;28;20032;-88
2023/11/28 12:31:57;;;;;;;1.73;1.27;;;5.50;99.90;;;;;;5083822;28;20021;-89
2023/11/28 12:34:30;;;;;;;2.30;1.73;;;5.50;99.90;;;;;;5052644;28;20056;-89
2023/11/28 12:36:59;;;;;;;2.13;1.60;;;5.60;99.90;;;;;;5078837;28;20035;-89
2023/11/28 12:39:26;;;;;;;2.13;1.60;;;5.50;99.90;;;;;;5059283;28;20020;-89
2023/11/28 12:41:56;;;;;;;2.10;1.50;;;5.50;99.90;;;;;;5042848;28;20510;-89
2023/11/28 12:44:31;;;;;;;3.65;2.00;;;5.50;99.90;;;;;;5042563;28;20036;-89
2023/11/28 12:46:57;;;;;;;3.78;2.00;;;5.50;99.90;;;;;;5043432;28;20025;-88
2023/11/28 12:49:25;;;;;;;2.72;1.80;;;5.50;99.90;;;;;;5059044;28;20033;-89
2023/11/28 12:51:51;;;;;;;2.95;1.58;;;5.50;99.90;;;;;;5058346;28;20042;-89
2023/11/28 12:54:21;;;;;;;2.22;1.42;;;5.50;99.90;;;;;;5058726;28;20020;-88
2023/11/28 12:56:52;;;;;;;3.85;2.08;;;5.50;99.90;;;;;;5058663;28;20051;-88